Pagrindinis puslapis
METAR-TAF:

METAR-TAF

Oro uostai :

Oslas, Norvegija

platuma: 60-12N, ilguma: 011-05E, Aukštis: 208 m

Dabartinis oras

Ataskaita buvo paskelbta 20 minutes, ne 09:20 UTC
Vėjas 6 kt iš Šiaurės/Šiaurės Vakarų
Temperatūra -9°C
Drėgmė 85%
Slėgis 1009 hPa
Matomumas 10 km arba daugiau
nėra debesų žemiau 1500 m ir nėra kamuolinių lietaus debesų

METAR: ENGM 070920Z 34006KT CAVOK M09/M11 Q1009 NOSIG

Laikas: 10:40 (09:40 UTC)

Prognozė

Prognozė galioja nuo 07 metu 06 UTC su 08 metu 06 UTC
Vėjas 3 kt iš Šiaurės/Šiaurės Vakarų
Matomumas 10 km arba daugiau
Mažai debesys ne aukštis 3000 ft
Tapsmas
nuo 07 metu 12 UTC su 07 metu 14 UTC
Vėjas 10 kt iš Pietų
Tapsmas
nuo 08 metu 00 UTC su 08 metu 02 UTC
Vėjas 3 kt nuo kintamojo kryptimis

TAF: ENGM 0706/0806 34003KT 9999 FEW030 BECMG 0712/0714 19010KT BECMG 0800/0802 VRB03KT

Orai ataskaitas ir orų prognozės (METAR, TAF).

turimą stotys yra geltonos ir raudonos taškus žemėlapyje.

Perkelti pele per norėdami pamatyti stoties vardą.

Tada spustelėkite, norėdami matyti oro stebėjimo ir prognozės.

Norėdami pakeisti žemėlapį: spustelėkite ant žalios mygtukų su juodo kryžiaus žemyn,; žalią mygtuką su brūkšneliu, jei norite nutolinti; arba žalių rodyklių gretimoms žemėlapius.


METAR-TAF: